Time;durP1;ratioP1;P1;durP2;ratioP2;P2;SDS_P1;SDS_P2;PMS_P1;PMS_P2;Temp;Humidity;BMP_temperature;BMP_pressure;BME280_temperature;BME280_humidity;BME280_pressure;Samples;Min_cycle;Max_cycle;Signal;HPM_P1;HPM_P2
2023/09/19 00:01:08;;;;;;;22.92;13.02;;;;;;;-144.57;100.00;62443.72;4859514;29;20054;-63
2023/09/19 00:03:38;;;;;;;22.52;13.27;;;;;;;-144.57;100.00;62443.72;4860251;29;20102;-62
2023/09/19 00:06:07;;;;;;;21.23;12.73;;;;;;;-144.57;100.00;62443.72;4859107;29;20413;-62
2023/09/19 00:08:36;;;;;;;20.98;12.88;;;;;;;-144.57;100.00;62443.72;4859387;29;20041;-61
2023/09/19 00:11:06;;;;;;;23.27;12.65;;;;;;;-144.57;100.00;62443.72;4857227;29;20456;-61
2023/09/19 00:13:33;;;;;;;24.25;13.15;;;;;;;-144.57;100.00;62443.72;4859618;29;20050;-61
2023/09/19 00:15:59;;;;;;;21.90;12.80;;;;;;;-144.57;100.00;62443.72;4859691;29;20047;-61
2023/09/19 00:18:32;;;;;;;19.88;13.00;;;;;;;-144.57;100.00;62443.72;4858126;29;20124;-61
2023/09/19 00:20:58;;;;;;;24.27;12.48;;;;;;;-144.57;100.00;62443.72;4859675;29;20454;-61
2023/09/19 00:23:24;;;;;;;21.33;12.40;;;;;;;-144.57;100.00;62443.72;4859058;29;20443;-61
2023/09/19 00:25:51;;;;;;;16.80;12.55;;;;;;;-144.57;100.00;62443.72;4859492;29;20516;-61
2023/09/19 00:28:18;;;;;;;19.20;12.68;;;;;;;-144.57;100.00;62443.72;4859588;29;20076;-61
2023/09/19 00:30:44;;;;;;;21.75;12.55;;;;;;;-144.57;100.00;62443.72;4858111;29;20128;-61
2023/09/19 00:33:15;;;;;;;21.40;13.48;;;;;;;-144.57;100.00;62443.72;4859283;29;20164;-61
2023/09/19 00:35:48;;;;;;;20.20;13.40;;;;;;;-144.57;100.00;62443.72;4859499;29;20059;-62
2023/09/19 00:38:18;;;;;;;24.60;13.35;;;;;;;-144.57;100.00;62443.72;4858036;29;20061;-61
2023/09/19 00:40:45;;;;;;;19.05;12.45;;;;;;;-144.57;100.00;62443.72;4859022;29;20053;-61
2023/09/19 00:43:11;;;;;;;19.75;12.20;;;;;;;-144.57;100.00;62443.72;4842583;29;20049;-61
2023/09/19 00:45:42;;;;;;;23.20;12.55;;;;;;;-144.57;100.00;62443.72;4859450;29;20056;-62
2023/09/19 00:48:09;;;;;;;24.17;12.45;;;;;;;-144.57;100.00;62443.72;4857749;29;20535;-61
2023/09/19 00:50:35;;;;;;;18.60;12.13;;;;;;;-144.57;100.00;62443.72;4859115;29;20069;-61
2023/09/19 00:53:08;;;;;;;17.08;11.57;;;;;;;-144.57;100.00;62443.72;4856904;29;20064;-60
2023/09/19 00:55:34;;;;;;;20.67;11.82;;;;;;;-144.57;100.00;62443.72;4860441;29;20519;-61
2023/09/19 00:58:00;;;;;;;20.13;12.40;;;;;;;-144.57;100.00;62443.72;4861471;29;20110;-61
2023/09/19 01:00:26;;;;;;;20.08;12.20;;;;;;;-144.57;100.00;62443.72;4861419;29;20533;-60
2023/09/19 01:02:52;;;;;;;22.10;12.48;;;;;;;-144.57;100.00;62443.72;4861259;29;20185;-61
2023/09/19 01:05:18;;;;;;;21.70;13.38;;;;;;;-144.57;100.00;62443.72;4861270;29;20053;-58
2023/09/19 01:07:45;;;;;;;19.65;12.07;;;;;;;-144.57;100.00;62443.72;4861820;29;20547;-61
2023/09/19 01:10:14;;;;;;;23.88;13.18;;;;;;;-144.57;100.00;62443.72;4862533;29;20551;-62
2023/09/19 01:12:49;;;;;;;25.05;12.63;;;;;;;-144.57;100.00;62443.72;4861341;29;20133;-61
2023/09/19 01:15:33;;;;;;;25.27;14.07;;;;;;;-144.57;100.00;62443.72;4845816;29;20053;-61
2023/09/19 01:18:20;;;;;;;20.10;12.82;;;;;;;-144.57;100.00;62443.72;4862426;29;20060;-61
2023/09/19 01:21:06;;;;;;;23.08;12.40;;;;;;;-144.57;100.00;62443.72;4861290;29;20501;-61
2023/09/19 01:23:50;;;;;;;19.40;12.20;;;;;;;-144.57;100.00;62443.72;4862464;29;20064;-61
2023/09/19 01:26:22;;;;;;;17.90;11.93;;;;;;;-144.57;100.00;62443.72;4862236;29;20148;-62
2023/09/19 01:29:19;;;;;;;18.92;11.77;;;;;;;-144.57;100.00;62443.72;4860817;29;20544;-61
2023/09/19 01:31:47;;;;;;;18.00;11.95;;;;;;;-144.57;100.00;62443.72;4860930;29;20061;-61
2023/09/19 01:34:13;;;;;;;18.65;12.00;;;;;;;-144.57;100.00;62443.72;4845394;29;20499;-61
2023/09/19 01:36:38;;;;;;;25.55;14.43;;;;;;;-144.57;100.00;62443.72;4861041;29;20060;-62
2023/09/19 01:39:10;;;;;;;21.88;11.98;;;;;;;-144.57;100.00;62443.72;4860588;29;20049;-61
2023/09/19 01:41:54;;;;;;;21.35;11.75;;;;;;;-144.57;100.00;62443.72;4845955;29;20053;-61
2023/09/19 01:44:52;;;;;;;22.52;12.48;;;;;;;-144.57;100.00;62443.72;4844680;29;20045;-62
2023/09/19 01:47:43;;;;;;;20.85;11.50;;;;;;;-144.57;100.00;62443.72;4861836;29;20065;-61
2023/09/19 01:50:16;;;;;;;23.80;12.23;;;;;;;-144.57;100.00;62443.72;4856405;29;20484;-60
2023/09/19 01:52:48;;;;;;;24.42;13.77;;;;;;;-144.57;100.00;62443.72;4845351;29;20057;-61
2023/09/19 01:55:17;;;;;;;31.33;14.10;;;;;;;-144.57;100.00;62443.72;4860429;29;20041;-62
2023/09/19 01:57:52;;;;;;;21.48;12.25;;;;;;;-144.57;100.00;62443.72;4860564;29;20053;-61
2023/09/19 02:00:19;;;;;;;22.90;13.35;;;;;;;-144.57;100.00;62443.72;4860608;29;20049;-61
2023/09/19 02:02:50;;;;;;;21.70;10.95;;;;;;;-144.57;100.00;62443.72;4860340;29;20117;-60
2023/09/19 02:05:23;;;;;;;;;;;;;;;-144.57;100.00;62443.72;4860480;29;20076;-61
2023/09/19 02:07:49;;;;;;;21.55;11.75;;;;;;;-144.57;100.00;62443.72;4860182;29;19935;-60
2023/09/19 02:10:17;;;;;;;26.50;14.25;;;;;;;-144.57;100.00;62443.72;4861598;29;20149;-61
2023/09/19 02:12:43;;;;;;;27.10;13.90;;;;;;;-144.57;100.00;62443.72;4844902;29;20053;-61
2023/09/19 02:15:09;;;;;;;18.23;11.52;;;;;;;-144.57;100.00;62443.72;4860061;29;20214;-61
2023/09/19 02:17:35;;;;;;;16.88;11.60;;;;;;;-144.57;100.00;62443.72;4861421;29;20515;-61
2023/09/19 02:20:03;;;;;;;21.50;12.35;;;;;;;-144.57;100.00;62443.72;4860425;29;20053;-61
2023/09/19 02:22:30;;;;;;;25.80;11.32;;;;;;;-144.57;100.00;62443.72;4860115;29;20160;-60
2023/09/19 02:25:00;;;;;;;18.83;11.75;;;;;;;-144.57;100.00;62443.72;4861343;29;20066;-60
2023/09/19 02:27:25;;;;;;;17.13;11.23;;;;;;;-144.57;100.00;62443.72;4861144;29;20473;-62
2023/09/19 02:29:51;;;;;;;20.95;11.88;;;;;;;-144.57;100.00;62443.72;4861235;29;20038;-61
2023/09/19 02:32:18;;;;;;;23.67;11.73;;;;;;;-144.57;100.00;62443.72;4858782;29;20053;-61
2023/09/19 02:34:44;;;;;;;22.27;12.55;;;;;;;-144.57;100.00;62443.72;4861169;29;20041;-61
2023/09/19 02:37:13;;;;;;;19.25;12.05;;;;;;;-144.57;100.00;62443.72;4860789;29;20059;-61
2023/09/19 02:39:39;;;;;;;22.88;12.20;;;;;;;-144.57;100.00;62443.72;4861033;29;20118;-61
2023/09/19 02:42:05;;;;;;;22.30;13.73;;;;;;;-144.57;100.00;62443.72;4859852;29;20468;-61
2023/09/19 02:44:32;;;;;;;21.77;12.60;;;;;;;-144.57;100.00;62443.72;4859741;29;20037;-61
2023/09/19 02:46:58;;;;;;;17.20;11.82;;;;;;;-144.57;100.00;62443.72;4859594;29;20077;-61
2023/09/19 02:49:25;;;;;;;22.77;11.82;;;;;;;-144.57;100.00;62443.72;4859591;29;20143;-61
2023/09/19 02:51:51;;;;;;;24.77;12.98;;;;;;;-144.57;100.00;62443.72;4860176;29;20547;-60
2023/09/19 02:54:17;;;;;;;22.50;12.38;;;;;;;-144.57;100.00;62443.72;4860644;29;20056;-60
2023/09/19 02:56:44;;;;;;;18.33;11.35;;;;;;;-144.57;100.00;62443.72;4860492;29;20045;-59
2023/09/19 02:59:10;;;;;;;18.00;11.38;;;;;;;-144.57;100.00;62443.72;4859126;29;20162;-62
2023/09/19 03:01:38;;;;;;;21.42;12.90;;;;;;;-144.57;100.00;62443.72;4843821;29;20144;-62
2023/09/19 03:04:06;;;;;;;18.73;12.80;;;;;;;-144.57;100.00;62443.72;4843583;29;20524;-61
2023/09/19 03:06:32;;;;;;;19.35;12.35;;;;;;;-144.57;100.00;62443.72;4858179;29;20056;-61
2023/09/19 03:08:59;;;;;;;18.02;11.70;;;;;;;-144.57;100.00;62443.72;4844114;29;20125;-60
2023/09/19 03:11:26;;;;;;;21.73;12.27;;;;;;;-144.57;100.00;62443.72;4859143;29;20515;-61
2023/09/19 03:13:57;;;;;;;18.50;11.45;;;;;;;-144.57;100.00;62443.72;4859261;29;20053;-61
2023/09/19 03:16:23;;;;;;;16.40;11.48;;;;;;;-144.57;100.00;62443.72;4858658;29;20053;-61
2023/09/19 03:18:51;;;;;;;18.10;11.90;;;;;;;-144.57;100.00;62443.72;4858539;29;20169;-61
2023/09/19 03:21:19;;;;;;;17.50;11.40;;;;;;;-144.57;100.00;62443.72;4859000;29;20085;-61
2023/09/19 03:23:45;;;;;;;17.95;12.20;;;;;;;-144.57;100.00;62443.72;4858766;29;20049;-61
2023/09/19 03:26:13;;;;;;;22.25;13.15;;;;;;;-144.57;100.00;62443.72;4843572;29;20045;-61
2023/09/19 03:28:39;;;;;;;18.52;12.73;;;;;;;-144.57;100.00;62443.72;4858314;29;20108;-61
2023/09/19 03:31:06;;;;;;;24.67;12.85;;;;;;;-144.57;100.00;62443.72;4858452;29;20049;-60
2023/09/19 03:33:34;;;;;;;23.55;12.73;;;;;;;-144.57;100.00;62443.72;4858830;29;20057;-61
2023/09/19 03:36:04;;;;;;;23.13;13.00;;;;;;;-144.57;100.00;62443.72;4858795;29;20083;-63
2023/09/19 03:38:31;;;;;;;24.05;13.48;;;;;;;-144.57;100.00;62443.72;4858543;29;20061;-60
2023/09/19 03:40:57;;;;;;;22.10;14.52;;;;;;;-144.57;100.00;62443.72;4858716;29;20037;-61
2023/09/19 03:43:23;;;;;;;24.38;16.35;;;;;;;-144.57;100.00;62443.72;4843137;29;20059;-61
2023/09/19 03:45:50;;;;;;;23.83;14.73;;;;;;;-144.57;100.00;62443.72;4843303;29;20076;-60
2023/09/19 03:48:17;;;;;;;22.10;13.98;;;;;;;-144.57;100.00;62443.72;4858580;29;20477;-61
2023/09/19 03:50:46;;;;;;;22.10;13.55;;;;;;;-144.57;100.00;62443.72;4843251;29;20072;-61
2023/09/19 03:53:12;;;;;;;29.00;15.05;;;;;;;-144.57;100.00;62443.72;4857834;29;20469;-59
2023/09/19 03:55:40;;;;;;;22.67;13.65;;;;;;;-144.57;100.00;62443.72;4859498;29;20053;-62
2023/09/19 03:58:07;;;;;;;23.52;14.57;;;;;;;-144.57;100.00;62443.72;4858276;29;20523;-60
2023/09/19 04:00:34;;;;;;;25.60;13.82;;;;;;;-144.57;100.00;62443.72;4858244;29;20060;-61
2023/09/19 04:03:02;;;;;;;24.65;14.30;;;;;;;-144.57;100.00;62443.72;4842883;29;20052;-62
2023/09/19 04:05:28;;;;;;;25.48;15.70;;;;;;;-144.57;100.00;62443.72;4858317;29;20042;-61
2023/09/19 04:07:53;;;;;;;25.23;15.27;;;;;;;-144.57;100.00;62443.72;4859314;29;20056;-60
2023/09/19 04:10:20;;;;;;;31.55;17.05;;;;;;;-144.57;100.00;62443.72;4858227;29;20077;-63
2023/09/19 04:12:53;;;;;;;29.13;16.77;;;;;;;-144.57;100.00;62443.72;4859194;29;20059;-61
2023/09/19 04:15:22;;;;;;;32.08;16.65;;;;;;;-144.57;100.00;62443.72;4859192;29;20045;-62
2023/09/19 04:17:49;;;;;;;31.05;18.42;;;;;;;-144.57;100.00;62443.72;4858829;29;20483;-61
2023/09/19 04:20:15;;;;;;;30.67;18.70;;;;;;;-144.57;100.00;62443.72;4857916;29;20079;-61
2023/09/19 04:22:41;;;;;;;30.80;18.45;;;;;;;-144.57;100.00;62443.72;4857889;29;20053;-61
2023/09/19 04:25:07;;;;;;;25.52;17.27;;;;;;;-144.57;100.00;62443.72;4857680;29;20056;-62
2023/09/19 04:27:34;;;;;;;28.00;16.25;;;;;;;-144.57;100.00;62443.72;4858143;29;20089;-61
2023/09/19 04:30:05;;;;;;;23.92;16.27;;;;;;;-144.57;100.00;62443.72;4857837;29;20048;-60
2023/09/19 04:32:32;;;;;;;24.55;16.42;;;;;;;-144.57;100.00;62443.72;4859255;29;20493;-61
2023/09/19 04:35:00;;;;;;;25.38;15.63;;;;;;;-144.57;100.00;62443.72;4857884;29;20064;-61
2023/09/19 04:37:26;;;;;;;25.98;16.38;;;;;;;-144.57;100.00;62443.72;4859001;29;20049;-61
2023/09/19 04:39:52;;;;;;;26.70;15.40;;;;;;;-144.57;100.00;62443.72;4859027;29;20049;-61
2023/09/19 04:42:19;;;;;;;26.45;15.18;;;;;;;-144.57;100.00;62443.72;4857672;29;20535;-62
2023/09/19 04:44:45;;;;;;;22.80;15.45;;;;;;;-144.57;100.00;62443.72;4858987;29;20046;-60
2023/09/19 04:47:12;;;;;;;21.02;14.30;;;;;;;-144.57;100.00;62443.72;4858650;29;20052;-62
2023/09/19 04:49:39;;;;;;;21.55;14.90;;;;;;;-144.57;100.00;62443.72;4858782;29;20087;-60
2023/09/19 04:52:06;;;;;;;27.23;15.18;;;;;;;-144.57;100.00;62443.72;4858888;29;20046;-62
2023/09/19 04:54:33;;;;;;;25.67;14.65;;;;;;;-144.57;100.00;62443.72;4858826;29;20128;-63
2023/09/19 04:57:00;;;;;;;26.05;15.85;;;;;;;-144.57;100.00;62443.72;4858323;29;20432;-61
2023/09/19 04:59:28;;;;;;;23.77;15.38;;;;;;;-144.57;100.00;62443.72;4858278;29;20543;-61
2023/09/19 05:01:54;;;;;;;22.83;15.13;;;;;;;-144.57;100.00;62443.72;4856997;29;20073;-62
2023/09/19 05:04:20;;;;;;;21.73;15.27;;;;;;;-144.57;100.00;62443.72;4866847;29;20068;-61
2023/09/19 05:06:46;;;;;;;24.98;16.42;;;;;;;-144.57;100.00;62443.72;4876132;29;20045;-63
2023/09/19 05:09:12;;;;;;;24.45;15.35;;;;;;;-144.57;100.00;62443.72;4876879;29;20393;-60
2023/09/19 05:11:38;;;;;;;28.90;16.35;;;;;;;-144.57;100.00;62443.72;4875619;29;20044;-62
2023/09/19 05:14:04;;;;;;;27.38;15.40;;;;;;;-144.57;100.00;62443.72;4875483;29;20159;-61
2023/09/19 05:16:34;;;;;;;29.75;16.52;;;;;;;-144.57;100.00;62443.72;4877136;29;20060;-62
2023/09/19 05:19:00;;;;;;;28.98;15.95;;;;;;;-144.57;100.00;62443.72;4876504;29;20059;-61
2023/09/19 05:21:28;;;;;;;24.23;16.10;;;;;;;-144.57;100.00;62443.72;4875682;29;20132;-62
2023/09/19 05:23:55;;;;;;;26.65;15.85;;;;;;;-144.57;100.00;62443.72;4875419;29;20485;-60
2023/09/19 05:26:22;;;;;;;23.92;16.23;;;;;;;-144.57;100.00;62443.72;4875594;29;20076;-62
2023/09/19 05:28:48;;;;;;;22.67;16.10;;;;;;;-144.57;100.00;62443.72;4876581;29;20037;-61
2023/09/19 05:31:15;;;;;;;26.85;16.63;;;;;;;-144.57;100.00;62443.72;4876957;29;20049;-63
2023/09/19 05:33:41;;;;;;;27.30;17.20;;;;;;;-144.57;100.00;62443.72;4876668;29;20056;-62
2023/09/19 05:36:09;;;;;;;23.92;16.42;;;;;;;-144.57;100.00;62443.72;4860266;29;20049;-62
2023/09/19 05:38:35;;;;;;;26.45;17.10;;;;;;;-144.57;100.00;62443.72;4875185;29;20041;-60
2023/09/19 05:41:02;;;;;;;23.95;17.90;;;;;;;-144.57;100.00;62443.72;4878324;29;20060;-64
2023/09/19 05:43:28;;;;;;;30.05;19.23;;;;;;;-144.57;100.00;62443.72;4879246;29;20044;-62
2023/09/19 05:45:56;;;;;;;31.25;19.42;;;;;;;-144.57;100.00;62443.72;4880632;29;20543;-60
2023/09/19 05:48:22;;;;;;;28.88;21.13;;;;;;;-144.57;100.00;62443.72;4872602;29;20127;-62
2023/09/19 05:50:48;;;;;;;31.42;23.13;;;;;;;-144.57;100.00;62443.72;4878906;29;20452;-61
2023/09/19 05:53:14;;;;;;;34.03;23.75;;;;;;;-144.57;100.00;62443.72;4880159;29;20112;-61
2023/09/19 05:55:41;;;;;;;29.88;19.75;;;;;;;-144.57;100.00;62443.72;4871118;29;20045;-62
2023/09/19 05:58:07;;;;;;;25.17;17.52;;;;;;;-144.57;100.00;62443.72;4862601;29;20427;-62
2023/09/19 06:00:32;;;;;;;24.92;17.40;;;;;;;-144.57;100.00;62443.72;4872702;29;20488;-62
2023/09/19 06:02:59;;;;;;;25.40;17.55;;;;;;;-144.57;100.00;62443.72;4861216;29;20115;-64
2023/09/19 06:05:26;;;;;;;23.13;15.90;;;;;;;-144.57;100.00;62443.72;4861416;29;20073;-61
2023/09/19 06:07:52;;;;;;;23.27;16.08;;;;;;;-144.57;100.00;62443.72;4860218;29;20049;-61
2023/09/19 06:10:20;;;;;;;27.92;16.38;;;;;;;-144.57;100.00;62443.72;4861383;29;20045;-60
2023/09/19 06:12:48;;;;;;;26.10;15.35;;;;;;;-144.57;100.00;62443.72;4860047;29;20064;-61
2023/09/19 06:15:15;;;;;;;25.52;15.73;;;;;;;-144.57;100.00;62443.72;4861124;29;20444;-61
2023/09/19 06:18:04;;;;;;;22.73;13.75;;;;;;;-144.57;100.00;62443.72;4859447;29;20041;-61
2023/09/19 06:20:31;;;;;;;21.15;14.50;;;;;;;-144.57;100.00;62443.72;4860874;29;20049;-60
2023/09/19 06:22:57;;;;;;;24.15;15.57;;;;;;;-144.57;100.00;62443.72;4859547;29;20462;-60
2023/09/19 06:25:23;;;;;;;25.60;14.85;;;;;;;-144.57;100.00;62443.72;4844292;29;20049;-62
2023/09/19 06:27:52;;;;;;;31.40;15.50;;;;;;;-144.57;100.00;62443.72;4863919;29;20527;-60
2023/09/19 06:30:18;;;;;;;24.35;15.05;;;;;;;-144.57;100.00;62443.72;4879759;29;20464;-60
2023/09/19 06:32:44;;;;;;;22.60;16.02;;;;;;;-144.57;100.00;62443.72;4879485;29;20064;-59
2023/09/19 06:35:11;;;;;;;26.92;16.25;;;;;;;-144.57;100.00;62443.72;4878452;29;20072;-61
2023/09/19 06:37:41;;;;;;;24.05;15.73;;;;;;;-144.57;100.00;62443.72;4879283;29;20049;-60
2023/09/19 06:40:14;;;;;;;24.70;15.48;;;;;;;-144.57;100.00;62443.72;4876605;29;20037;-61
2023/09/19 06:42:45;;;;;;;27.30;16.23;;;;;;;-144.57;100.00;62443.72;4858997;29;20041;-59
2023/09/19 06:45:18;;;;;;;26.42;16.45;;;;;;;-144.57;100.00;62443.72;4860444;29;20048;-61
2023/09/19 06:47:50;;;;;;;23.95;15.88;;;;;;;-144.57;100.00;62443.72;4865191;29;20048;-60
2023/09/19 06:50:21;;;;;;;27.42;17.55;;;;;;;-144.57;100.00;62443.72;4877864;29;20061;-61
2023/09/19 06:52:49;;;;;;;23.77;16.40;;;;;;;-144.57;100.00;62443.72;4878087;29;20045;-61
2023/09/19 06:55:19;;;;;;;33.78;17.00;;;;;;;-144.57;100.00;62443.72;4873167;29;20460;-60
2023/09/19 06:57:46;;;;;;;25.17;16.55;;;;;;;-144.57;100.00;62443.72;4865306;29;20088;-61
2023/09/19 07:00:15;;;;;;;29.67;15.82;;;;;;;-144.57;100.00;62443.72;4864909;29;20420;-61
2023/09/19 07:02:42;;;;;;;31.33;17.75;;;;;;;-144.57;100.00;62443.72;4848495;29;20037;-61
2023/09/19 07:05:09;;;;;;;24.73;15.98;;;;;;;-144.57;100.00;62443.72;4877748;29;20070;-60
2023/09/19 07:07:35;;;;;;;24.88;15.88;;;;;;;-144.57;100.00;62443.72;4878941;29;20049;-61
2023/09/19 07:10:10;;;;;;;24.98;16.05;;;;;;;-144.57;100.00;62443.72;4862100;29;20072;-59
2023/09/19 07:12:36;;;;;;;24.33;15.95;;;;;;;-144.57;100.00;62443.72;4877337;29;20417;-61
2023/09/19 07:15:02;;;;;;;24.77;17.02;;;;;;;-144.57;100.00;62443.72;4878914;29;20047;-61
2023/09/19 07:17:30;;;;;;;24.13;16.83;;;;;;;-144.57;100.00;62443.72;4877471;29;20077;-61
2023/09/19 07:19:57;;;;;;;26.00;18.15;;;;;;;-144.57;100.00;62443.72;4876417;29;20641;-60
2023/09/19 07:22:23;;;;;;;32.40;17.85;;;;;;;-144.57;100.00;62443.72;4861841;29;20067;-58
2023/09/19 07:24:49;;;;;;;27.55;17.73;;;;;;;-144.57;100.00;62443.72;4877103;29;20495;-61
2023/09/19 07:27:15;;;;;;;29.80;17.75;;;;;;;-144.57;100.00;62443.72;4878324;29;20045;-60
2023/09/19 07:29:41;;;;;;;33.80;17.80;;;;;;;-144.57;100.00;62443.72;4877178;29;20542;-60
2023/09/19 07:32:07;;;;;;;26.25;17.75;;;;;;;-144.57;100.00;62443.72;4836641;29;20054;-62
2023/09/19 07:34:33;;;;;;;38.22;19.38;;;;;;;-144.57;100.00;62443.72;4876961;29;20053;-60
2023/09/19 07:36:59;;;;;;;33.53;19.10;;;;;;;-144.57;100.00;62443.72;4877712;29;20097;-59
2023/09/19 07:39:25;;;;;;;24.95;17.13;;;;;;;-144.57;100.00;62443.72;4876278;29;20503;-61
2023/09/19 07:41:50;;;;;;;31.83;18.58;;;;;;;-144.57;100.00;62443.72;4877872;29;20140;-63
2023/09/19 07:44:17;;;;;;;34.38;18.80;;;;;;;-144.57;100.00;62443.72;4877613;29;20147;-58
2023/09/19 07:46:44;;;;;;;38.22;19.55;;;;;;;-144.57;100.00;62443.72;4861139;29;20053;-61
2023/09/19 07:49:10;;;;;;;33.58;18.58;;;;;;;-144.57;100.00;62443.72;4877281;29;20065;-61
2023/09/19 07:51:36;;;;;;;24.75;17.67;;;;;;;-144.57;100.00;62443.72;4877949;29;20408;-58
2023/09/19 07:54:02;;;;;;;28.10;18.60;;;;;;;-144.57;100.00;62443.72;4863878;29;20106;-59
2023/09/19 07:56:27;;;;;;;29.67;18.80;;;;;;;-144.57;100.00;62443.72;4859071;29;20427;-61
2023/09/19 07:58:53;;;;;;;30.73;18.75;;;;;;;-144.57;100.00;62443.72;4860250;29;20056;-60
2023/09/19 08:01:19;;;;;;;27.67;18.02;;;;;;;-144.57;100.00;62443.72;4858881;29;20508;-62
2023/09/19 08:03:45;;;;;;;31.40;18.65;;;;;;;-144.57;100.00;62443.72;4871044;29;20053;-61
2023/09/19 08:06:11;;;;;;;29.90;17.88;;;;;;;-144.57;100.00;62443.72;4878109;29;20081;-62
2023/09/19 08:08:37;;;;;;;24.58;17.52;;;;;;;-144.57;100.00;62443.72;4877887;29;20045;-59
2023/09/19 08:11:11;;;;;;;29.27;18.85;;;;;;;-144.57;100.00;62443.72;4876400;29;20064;-61
2023/09/19 08:13:43;;;;;;;33.28;18.35;;;;;;;-144.57;100.00;62443.72;4877718;29;20048;-62
2023/09/19 08:16:10;;;;;;;29.95;19.15;;;;;;;-144.57;100.00;62443.72;4877868;29;20056;-61
2023/09/19 08:18:39;;;;;;;37.58;19.13;;;;;;;-144.57;100.00;62443.72;4877404;29;20148;-61
2023/09/19 08:21:10;;;;;;;;;;;;;;;-144.57;100.00;62443.72;4876761;29;20159;-61
2023/09/19 08:23:40;;;;;;;31.58;18.35;;;;;;;-144.57;100.00;62443.72;4877063;29;19924;-62
2023/09/19 08:26:07;;;;;;;33.25;19.80;;;;;;;-144.57;100.00;62443.72;4877859;29;20115;-61
2023/09/19 08:28:35;;;;;;;30.33;19.77;;;;;;;-144.57;100.00;62443.72;4875696;29;20045;-59
2023/09/19 08:31:04;;;;;;;33.45;19.60;;;;;;;-144.57;100.00;62443.72;4877681;29;20094;-61
2023/09/19 08:33:35;;;;;;;31.23;20.42;;;;;;;-144.57;100.00;62443.72;4877529;29;20055;-62
2023/09/19 08:36:00;;;;;;;;;;;;;;;-144.57;100.00;62443.72;4876870;29;20049;-59
2023/09/19 08:38:30;;;;;;;29.67;18.75;;;;;;;-144.57;100.00;62443.72;4875760;29;19935;-60
2023/09/19 08:40:59;;;;;;;37.85;20.33;;;;;;;-144.57;100.00;62443.72;4877940;29;20052;-59
2023/09/19 08:43:26;;;;;;;32.58;19.80;;;;;;;-144.57;100.00;62443.72;4860497;29;20056;-59
2023/09/19 08:46:11;;;;;;;36.72;19.88;;;;;;;-144.57;100.00;62443.72;4877718;29;20048;-61
2023/09/19 08:48:39;;;;;;;34.75;19.45;;;;;;;-144.57;100.00;62443.72;4877409;29;20098;-61
2023/09/19 08:51:14;;;;;;;36.53;19.40;;;;;;;-144.57;100.00;62443.72;4844316;29;20424;-59
2023/09/19 08:54:01;;;;;;;36.50;19.20;;;;;;;-144.57;100.00;62443.72;4870509;29;20124;-62
2023/09/19 08:56:29;;;;;;;39.10;19.80;;;;;;;-144.57;100.00;62443.72;4863616;29;20042;-61
2023/09/19 08:58:58;;;;;;;32.40;19.30;;;;;;;-144.57;100.00;62443.72;4870763;29;20404;-61
2023/09/19 09:01:28;;;;;;;37.67;19.50;;;;;;;-144.57;100.00;62443.72;4875987;29;20503;-62
2023/09/19 09:03:55;;;;;;;35.70;18.48;;;;;;;-144.57;100.00;62443.72;4840652;29;20045;-60
2023/09/19 09:06:23;;;;;;;33.88;19.23;;;;;;;-144.57;100.00;62443.72;4875956;29;20045;-62
2023/09/19 09:08:50;;;;;;;37.13;19.67;;;;;;;-144.57;100.00;62443.72;4875151;29;20084;-62
2023/09/19 09:11:17;;;;;;;34.40;18.92;;;;;;;-144.57;100.00;62443.72;4877033;29;20049;-61
2023/09/19 09:13:47;;;;;;;35.15;19.65;;;;;;;-144.57;100.00;62443.72;4877001;29;20062;-62
2023/09/19 09:16:13;;;;;;;35.33;19.48;;;;;;;-144.57;100.00;62443.72;4879613;29;20049;-62
2023/09/19 09:18:40;;;;;;;32.55;19.23;;;;;;;-144.57;100.00;62443.72;4880619;29;20129;-61
2023/09/19 09:21:07;;;;;;;31.80;20.02;;;;;;;-144.57;100.00;62443.72;4879295;29;20511;-61
2023/09/19 09:23:33;;;;;;;29.70;19.90;;;;;;;-144.57;100.00;62443.72;4880679;29;20162;-61
2023/09/19 09:26:03;;;;;;;32.72;20.13;;;;;;;-144.57;100.00;62443.72;4879608;29;20041;-61
2023/09/19 09:28:30;;;;;;;;;;;;;;;-144.57;100.00;62443.72;4881096;29;20049;-60
2023/09/19 09:31:02;;;;;;;33.85;19.25;;;;;;;-144.57;100.00;62443.72;4880962;29;19924;-63
2023/09/19 09:33:28;;;;;;;32.40;19.55;;;;;;;-144.57;100.00;62443.72;4879396;29;20049;-61
2023/09/19 09:35:56;;;;;;;37.33;18.75;;;;;;;-144.57;100.00;62443.72;4880938;29;20049;-60
2023/09/19 09:38:27;;;;;;;32.63;20.83;;;;;;;-144.57;100.00;62443.72;4880024;29;20495;-61
2023/09/19 09:43:28;;;;;;;31.27;19.20;;;;;;;-144.57;100.00;62443.72;4880248;29;20053;-61
2023/09/19 09:51:47;;;;;;;31.65;18.17;;;;;;;-144.57;100.00;62443.72;4873080;29;20042;-61
2023/09/19 09:54:20;;;;;;;38.17;19.08;;;;;;;-144.57;100.00;62443.72;4874950;29;20064;-60
2023/09/19 09:56:58;;;;;;;36.08;18.92;;;;;;;-144.57;100.00;62443.72;4863669;29;20129;-60
2023/09/19 09:59:43;;;;;;;29.73;18.90;;;;;;;-144.57;100.00;62443.72;4860515;29;20136;-61
2023/09/19 10:02:13;;;;;;;26.25;18.10;;;;;;;-144.57;100.00;62443.72;4859893;29;20079;-62
2023/09/19 10:04:51;;;;;;;30.08;19.35;;;;;;;-144.57;100.00;62443.72;4880205;29;20049;-63
2023/09/19 10:07:32;;;;;;;30.70;18.92;;;;;;;-144.57;100.00;62443.72;4879950;29;20048;-61
2023/09/19 10:10:06;;;;;;;32.53;19.23;;;;;;;-144.57;100.00;62443.72;4880212;29;20132;-61
2023/09/19 10:12:38;;;;;;;31.33;20.90;;;;;;;-144.57;100.00;62443.72;4878546;29;20128;-60
2023/09/19 10:15:06;;;;;;;32.28;20.50;;;;;;;-144.57;100.00;62443.72;4879609;29;20201;-61
2023/09/19 10:17:36;;;;;;;39.33;23.17;;;;;;;-144.57;100.00;62443.72;4878119;29;20101;-61
2023/09/19 10:20:18;;;;;;;37.78;24.10;;;;;;;-144.57;100.00;62443.72;4861829;29;20053;-60
2023/09/19 10:22:56;;;;;;;41.80;24.23;;;;;;;-144.57;100.00;62443.72;4877102;29;20500;-61
2023/09/19 10:25:25;;;;;;;33.28;21.38;;;;;;;-144.57;100.00;62443.72;4864422;29;20045;-59
2023/09/19 10:27:53;;;;;;;31.23;20.67;;;;;;;-144.57;100.00;62443.72;4878185;29;20519;-61
2023/09/19 10:30:20;;;;;;;39.40;20.30;;;;;;;-144.57;100.00;62443.72;4879707;29;20052;-61
2023/09/19 10:32:50;;;;;;;28.45;19.42;;;;;;;-144.57;100.00;62443.72;4879301;29;20041;-62
2023/09/19 10:35:16;;;;;;;29.88;20.15;;;;;;;-144.57;100.00;62443.72;4846506;29;20045;-62
2023/09/19 10:37:45;;;;;;;33.85;19.88;;;;;;;-144.57;100.00;62443.72;4878166;29;20041;-62
2023/09/19 10:40:15;;;;;;;31.73;19.67;;;;;;;-144.57;100.00;62443.72;4878135;29;20151;-62
2023/09/19 10:42:42;;;;;;;30.85;18.80;;;;;;;-144.57;100.00;62443.72;4862959;29;20072;-61
2023/09/19 10:45:13;;;;;;;32.35;19.83;;;;;;;-144.57;100.00;62443.72;4862637;29;20061;-61
2023/09/19 10:47:39;;;;;;;28.65;19.27;;;;;;;-144.57;100.00;62443.72;4878758;29;20049;-63
2023/09/19 10:50:10;;;;;;;29.02;19.92;;;;;;;-144.57;100.00;62443.72;4879101;29;20136;-62
2023/09/19 10:52:39;;;;;;;36.00;20.00;;;;;;;-144.57;100.00;62443.72;4877455;29;20049;-62
2023/09/19 10:55:06;;;;;;;32.75;18.48;;;;;;;-144.57;100.00;62443.72;4865795;29;20091;-62
2023/09/19 10:57:34;;;;;;;28.63;19.33;;;;;;;-144.57;100.00;62443.72;4839928;29;20136;-61
2023/09/19 11:00:46;;;;;;;28.50;18.92;;;;;;;-144.57;100.00;62443.72;4831155;29;20042;-62
2023/09/19 11:03:11;;;;;;;26.98;19.42;;;;;;;-144.57;100.00;62443.72;4848406;29;20050;-61
2023/09/19 11:05:41;;;;;;;32.20;19.33;;;;;;;-144.57;100.00;62443.72;4870798;29;20124;-62
2023/09/19 11:08:07;;;;;;;32.95;19.73;;;;;;;-144.57;100.00;62443.72;4873934;29;20063;-61
2023/09/19 11:10:47;;;;;;;30.67;20.17;;;;;;;-144.57;100.00;62443.72;4812646;29;21059;-61